Pierceland, Canada
Current Conditions -  °F | °C
As of 9:00 AM on Monday 22 Dec 2014 (Local Time) from CYOD Reporting Station
Overcast Overcast  
Wind Chill: 19°   Ceiling: 800
Heat Index: 19°   Visibility: 15mi
Dew Point: 19°   Wind: 2mph
Humidity: 100%   Direction: 240°WSW
Pressure: 29.73"   Gusts: NA
Location:  54.34°N, 109.78°W
Report Text: CYOD 221500Z 24002KT 15SM BKN008 OVC120 M07/M07 A2973 RMKST5AC3 SLP105
Loading
Personal Weather Stations






























Interactive Weather Map New forecast layout! Learn more

10-Day Weather Forecast

Advertisements
Track Severe Weather on mobile